Time;durP1;ratioP1;P1;durP2;ratioP2;P2;SDS_P1;SDS_P2;PMS_P1;PMS_P2;Temp;Humidity;BMP_temperature;BMP_pressure;BME280_temperature;BME280_humidity;BME280_pressure;Samples;Min_cycle;Max_cycle;Signal;HPM_P1;HPM_P2
2024/02/19 00:00:05;;;;;;;1.35;0.90;;;9.00;99.90;;;;;;5031620;28;20258;-75
2024/02/19 00:02:32;;;;;;;1.30;1.20;;;8.90;99.90;;;;;;5031896;28;20229;-74
2024/02/19 00:04:59;;;;;;;2.05;1.13;;;8.90;99.90;;;;;;5031706;28;20250;-77
2024/02/19 00:07:26;;;;;;;1.70;1.10;;;8.90;99.90;;;;;;5032023;28;20241;-74
2024/02/19 00:09:53;;;;;;;4.25;0.80;;;8.90;99.90;;;;;;5027469;28;20202;-74
2024/02/19 00:12:22;;;;;;;1.10;1.00;;;8.80;99.90;;;;;;5031009;28;20207;-75
2024/02/19 00:14:49;;;;;;;1.10;0.90;;;8.80;99.90;;;;;;5034667;28;20209;-74
2024/02/19 00:17:16;;;;;;;2.70;1.48;;;8.80;99.90;;;;;;5035907;28;20220;-75
2024/02/19 00:19:43;;;;;;;1.75;1.38;;;8.70;99.90;;;;;;5031093;28;20212;-76
2024/02/19 00:22:10;;;;;;;2.55;1.00;;;8.70;99.90;;;;;;5033961;28;20200;-75
2024/02/19 00:24:39;;;;;;;1.77;0.80;;;8.60;99.90;;;;;;5032148;28;20205;-77
2024/02/19 00:27:07;;;;;;;1.90;1.05;;;8.60;99.90;;;;;;5029797;28;20255;-76
2024/02/19 00:29:35;;;;;;;2.65;0.98;;;8.60;99.90;;;;;;5034547;28;20218;-76
2024/02/19 00:32:02;;;;;;;0.70;0.60;;;8.70;99.90;;;;;;5034755;28;20201;-76
2024/02/19 00:34:29;;;;;;;0.98;0.70;;;8.50;99.90;;;;;;5033126;28;20209;-74
2024/02/19 00:36:56;;;;;;;0.90;0.60;;;8.50;99.90;;;;;;5035330;28;20282;-74
2024/02/19 00:39:23;;;;;;;1.13;0.70;;;8.40;99.90;;;;;;5034866;28;20254;-74
2024/02/19 00:41:50;;;;;;;1.38;0.80;;;8.40;99.90;;;;;;5032090;28;20270;-75
2024/02/19 00:44:17;;;;;;;2.00;0.80;;;8.40;99.90;;;;;;5024534;28;20244;-74
2024/02/19 00:46:46;;;;;;;1.05;0.82;;;8.50;99.90;;;;;;5027978;28;20696;-75
2024/02/19 00:49:13;;;;;;;1.30;0.85;;;8.40;99.90;;;;;;5032911;28;20236;-75
2024/02/19 00:51:40;;;;;;;2.70;0.80;;;8.50;99.90;;;;;;5034572;28;20236;-75
2024/02/19 00:54:07;;;;;;;1.95;0.80;;;8.40;99.90;;;;;;5027981;28;20282;-76
2024/02/19 00:56:34;;;;;;;1.25;1.10;;;8.40;99.90;;;;;;5035970;28;20224;-76
2024/02/19 00:59:01;;;;;;;4.22;1.90;;;8.40;99.90;;;;;;5035159;28;20255;-74
2024/02/19 01:01:28;;;;;;;6.85;1.50;;;8.50;99.90;;;;;;5032113;28;20777;-75
2024/02/19 01:03:57;;;;;;;4.80;2.72;;;8.50;99.90;;;;;;5032340;28;20251;-75
2024/02/19 01:06:24;;;;;;;2.67;1.70;;;8.40;99.90;;;;;;5023085;28;20204;-74
2024/02/19 01:08:54;;;;;;;4.38;1.88;;;8.50;99.90;;;;;;5026045;28;20288;-74
2024/02/19 01:11:21;;;;;;;5.97;2.42;;;8.50;99.90;;;;;;5029720;28;20197;-74
2024/02/19 01:13:48;;;;;;;6.97;3.33;;;8.40;99.90;;;;;;5036987;28;20271;-76
2024/02/19 01:16:16;;;;;;;7.72;3.38;;;8.50;99.90;;;;;;5032948;28;20213;-76
2024/02/19 01:18:43;;;;;;;13.18;2.95;;;8.40;99.90;;;;;;5035768;28;20247;-74
2024/02/19 01:21:11;;;;;;;5.30;3.22;;;8.50;99.90;;;;;;5022058;28;20273;-72
2024/02/19 01:23:55;;;;;;;4.90;2.92;;;8.50;99.90;;;;;;5045697;28;20240;-74
2024/02/19 01:26:22;;;;;;;9.52;2.10;;;8.40;99.90;;;;;;5040206;28;20213;-75
2024/02/19 01:28:49;;;;;;;7.32;2.65;;;8.50;99.90;;;;;;5039078;28;20212;-76
2024/02/19 01:31:18;;;;;;;7.90;2.65;;;8.40;99.90;;;;;;5036343;28;20247;-77
2024/02/19 01:33:46;;;;;;;16.85;2.90;;;8.50;99.90;;;;;;5031500;28;20252;-75
2024/02/19 01:36:15;;;;;;;8.73;2.58;;;8.50;99.90;;;;;;5029074;28;20197;-73
2024/02/19 01:38:42;;;;;;;6.57;2.08;;;8.50;99.90;;;;;;5028463;28;20232;-75
2024/02/19 01:41:11;;;;;;;3.20;1.85;;;8.60;99.90;;;;;;5023207;28;20239;-74
2024/02/19 01:43:54;;;;;;;7.53;2.85;;;8.60;99.90;;;;;;5029754;28;20228;-76
2024/02/19 01:46:22;;;;;;;7.50;2.00;;;8.60;99.90;;;;;;5030621;28;20205;-76
2024/02/19 01:48:49;;;;;;;7.78;2.22;;;8.60;99.90;;;;;;5023804;28;20204;-76
2024/02/19 01:51:19;;;;;;;4.70;1.50;;;8.50;99.90;;;;;;5036059;28;20196;-74
2024/02/19 01:53:46;;;;;;;5.68;1.15;;;8.50;99.90;;;;;;5033927;28;20581;-74
2024/02/19 01:56:13;;;;;;;10.45;2.10;;;8.40;99.90;;;;;;5036040;28;20213;-74
2024/02/19 01:58:41;;;;;;;5.75;3.38;;;8.40;99.90;;;;;;5034288;28;20216;-75
2024/02/19 02:01:08;;;;;;;12.20;2.90;;;8.50;99.90;;;;;;5030849;28;20200;-75
2024/02/19 02:03:36;;;;;;;12.00;2.22;;;8.50;99.90;;;;;;5032928;28;20274;-74
2024/02/19 02:06:03;;;;;;;6.68;1.65;;;8.40;99.90;;;;;;5033686;28;20205;-74
2024/02/19 02:08:32;;;;;;;2.78;1.25;;;8.30;99.90;;;;;;5032396;28;20243;-75
2024/02/19 02:10:59;;;;;;;7.53;1.65;;;8.30;99.90;;;;;;5032411;28;20200;-75
2024/02/19 02:13:26;;;;;;;8.30;1.58;;;8.30;99.90;;;;;;5029814;28;20283;-78
2024/02/19 02:15:53;;;;;;;2.78;1.35;;;8.30;99.90;;;;;;5033419;28;20647;-75
2024/02/19 02:18:20;;;;;;;8.98;1.50;;;8.30;99.90;;;;;;5033711;28;20220;-75
2024/02/19 02:20:47;;;;;;;5.47;2.15;;;8.20;99.90;;;;;;5032406;28;20213;-78
2024/02/19 02:23:16;;;;;;;9.35;2.05;;;8.20;99.90;;;;;;5033630;28;20651;-75
2024/02/19 02:25:44;;;;;;;7.80;1.80;;;8.30;99.90;;;;;;5032959;28;20737;-78
2024/02/19 02:28:13;;;;;;;2.88;1.25;;;8.30;99.90;;;;;;5032431;28;20224;-77
2024/02/19 02:30:39;;;;;;;6.38;2.20;;;8.30;99.90;;;;;;5032363;28;20614;-77
2024/02/19 02:33:07;;;;;;;3.95;1.05;;;8.20;99.90;;;;;;5030207;28;20224;-75
2024/02/19 02:35:33;;;;;;;5.82;1.80;;;8.20;99.90;;;;;;5029050;28;20255;-74
2024/02/19 02:38:00;;;;;;;9.02;1.73;;;8.20;99.90;;;;;;5032417;28;20224;-74
2024/02/19 02:40:27;;;;;;;15.40;1.83;;;8.20;99.90;;;;;;5026465;28;20266;-75
2024/02/19 02:42:54;;;;;;;3.75;1.30;;;8.20;99.90;;;;;;5027905;28;20286;-75
2024/02/19 02:45:24;;;;;;;4.15;1.25;;;8.20;99.90;;;;;;5033217;28;20238;-77
2024/02/19 02:47:51;;;;;;;4.32;1.35;;;8.20;99.90;;;;;;5033581;28;20262;-75
2024/02/19 02:50:18;;;;;;;12.50;3.35;;;8.10;99.90;;;;;;5031132;28;20209;-76
2024/02/19 02:52:45;;;;;;;7.43;2.05;;;8.20;99.90;;;;;;5029626;28;20726;-77
2024/02/19 02:55:12;;;;;;;2.95;1.67;;;8.20;99.90;;;;;;5034067;28;20629;-73
2024/02/19 02:57:39;;;;;;;8.82;1.67;;;8.20;99.90;;;;;;5032633;28;20221;-73
2024/02/19 03:00:08;;;;;;;4.35;1.67;;;8.20;99.90;;;;;;5034179;28;20258;-76
2024/02/19 03:02:36;;;;;;;2.67;1.35;;;8.20;99.90;;;;;;5027719;28;20228;-76
2024/02/19 03:05:04;;;;;;;6.75;1.80;;;8.20;99.90;;;;;;5032261;28;20267;-75
2024/02/19 03:07:31;;;;;;;2.83;1.20;;;8.10;99.90;;;;;;5027411;28;20684;-76
2024/02/19 03:09:58;;;;;;;4.35;1.33;;;8.10;99.90;;;;;;5033552;28;20215;-75
2024/02/19 03:12:25;;;;;;;4.45;1.65;;;8.20;99.90;;;;;;5035461;28;20229;-74
2024/02/19 03:14:52;;;;;;;8.02;2.40;;;8.20;99.90;;;;;;5034448;28;20251;-78
2024/02/19 03:17:19;;;;;;;7.38;1.25;;;8.20;99.90;;;;;;5038726;28;20269;-76
2024/02/19 03:19:47;;;;;;;6.88;1.90;;;8.20;99.90;;;;;;5034826;28;20275;-76
2024/02/19 03:22:15;;;;;;;8.80;2.22;;;8.20;99.90;;;;;;5032421;28;20258;-75
2024/02/19 03:24:42;;;;;;;3.75;1.80;;;8.30;99.90;;;;;;5034992;28;20262;-75
2024/02/19 03:27:09;;;;;;;5.18;2.33;;;8.30;99.90;;;;;;5034075;28;20201;-75
2024/02/19 03:29:36;;;;;;;11.90;5.15;;;8.30;99.90;;;;;;5042757;28;20203;-76
2024/02/19 03:32:03;;;;;;;8.32;5.30;;;8.30;99.90;;;;;;5034198;28;20274;-75
2024/02/19 03:34:30;;;;;;;17.95;8.18;;;8.30;99.90;;;;;;5029109;28;20209;-75
2024/02/19 03:36:58;;;;;;;12.07;7.72;;;8.40;99.90;;;;;;5026271;28;20200;-76
2024/02/19 03:39:26;;;;;;;10.00;5.90;;;8.40;99.90;;;;;;5028913;28;20205;-76
2024/02/19 03:41:53;;;;;;;13.13;6.53;;;8.40;99.90;;;;;;5031320;28;20208;-73
2024/02/19 03:44:20;;;;;;;10.85;6.35;;;8.40;99.90;;;;;;5032295;28;20236;-76
2024/02/19 03:46:47;;;;;;;10.73;6.15;;;8.30;99.90;;;;;;5030031;28;20213;-75
2024/02/19 03:49:14;;;;;;;10.32;6.22;;;8.40;99.90;;;;;;5031463;28;20208;-76
2024/02/19 03:51:41;;;;;;;13.85;6.45;;;8.40;99.90;;;;;;5036021;28;20200;-75
2024/02/19 03:54:09;;;;;;;6.30;5.05;;;8.40;99.90;;;;;;5033095;28;20228;-75
2024/02/19 03:56:36;;;;;;;5.32;3.90;;;8.50;99.90;;;;;;5033203;28;20255;-76
2024/02/19 03:59:03;;;;;;;6.63;3.60;;;8.50;99.90;;;;;;5038926;28;20224;-75
2024/02/19 04:01:30;;;;;;;6.15;4.13;;;8.50;99.90;;;;;;5039793;28;20205;-75
2024/02/19 04:03:57;;;;;;;10.57;5.30;;;8.50;99.90;;;;;;5037541;28;20243;-74
2024/02/19 04:06:24;;;;;;;10.10;6.60;;;8.50;99.90;;;;;;5049715;28;20216;-75
2024/02/19 04:08:51;;;;;;;16.85;7.35;;;8.60;99.90;;;;;;5053694;28;20208;-77
2024/02/19 04:11:20;;;;;;;10.88;5.75;;;8.50;99.90;;;;;;5044177;28;20202;-74
2024/02/19 04:13:48;;;;;;;8.07;5.82;;;8.40;99.90;;;;;;5033681;28;20228;-75
2024/02/19 04:16:15;;;;;;;10.73;5.28;;;8.50;99.90;;;;;;5040094;28;20205;-75
2024/02/19 04:18:42;;;;;;;8.50;4.20;;;8.50;99.90;;;;;;5035251;28;20629;-74
2024/02/19 04:21:09;;;;;;;11.68;4.88;;;8.40;99.90;;;;;;5029175;28;20206;-74
2024/02/19 04:23:37;;;;;;;4.47;3.47;;;8.40;99.90;;;;;;5035308;28;20225;-75
2024/02/19 04:26:04;;;;;;;2.72;2.35;;;8.50;99.90;;;;;;5035594;28;20246;-74
2024/02/19 04:28:32;;;;;;;3.80;2.38;;;8.50;99.90;;;;;;5035254;28;20201;-76
2024/02/19 04:30:59;;;;;;;2.28;1.60;;;8.50;99.90;;;;;;5026909;28;20613;-74
2024/02/19 04:33:26;;;;;;;2.67;1.63;;;8.60;99.90;;;;;;5035517;28;20619;-76
2024/02/19 04:35:53;;;;;;;2.30;1.10;;;8.50;99.90;;;;;;5035044;28;20251;-74
2024/02/19 04:38:20;;;;;;;2.30;1.60;;;8.50;99.90;;;;;;5037909;28;20283;-74
2024/02/19 04:40:47;;;;;;;2.08;1.25;;;8.50;99.90;;;;;;5034813;28;20666;-76
2024/02/19 04:43:14;;;;;;;1.50;1.35;;;8.50;99.90;;;;;;5037639;28;20260;-75
2024/02/19 04:45:43;;;;;;;1.65;1.40;;;8.50;99.90;;;;;;5031010;28;20206;-74
2024/02/19 04:48:10;;;;;;;3.13;1.23;;;8.50;99.90;;;;;;5034065;28;20207;-75
2024/02/19 04:50:37;;;;;;;3.17;1.75;;;8.60;99.90;;;;;;5034196;28;20205;-75
2024/02/19 04:53:04;;;;;;;5.40;2.53;;;8.60;99.90;;;;;;5027370;28;20229;-75
2024/02/19 04:55:31;;;;;;;4.60;3.10;;;8.60;99.90;;;;;;5034099;28;20323;-75
2024/02/19 04:57:58;;;;;;;4.80;2.08;;;8.60;99.90;;;;;;5043010;28;20480;-76
2024/02/19 05:00:26;;;;;;;10.57;3.55;;;8.60;99.90;;;;;;5034626;28;20712;-73
2024/02/19 05:02:54;;;;;;;5.38;3.47;;;8.60;99.90;;;;;;5040592;28;20262;-74
2024/02/19 05:05:21;;;;;;;5.63;2.75;;;8.60;99.90;;;;;;5035427;28;20659;-76
2024/02/19 05:07:48;;;;;;;2.80;1.75;;;8.70;99.90;;;;;;5036281;28;20667;-75
2024/02/19 05:10:15;;;;;;;2.95;2.20;;;8.70;99.90;;;;;;5036696;28;20247;-73
2024/02/19 05:12:42;;;;;;;4.05;1.77;;;8.70;99.90;;;;;;5035555;28;20283;-74
2024/02/19 05:15:11;;;;;;;3.05;1.88;;;8.70;99.90;;;;;;5034351;28;20200;-74
2024/02/19 05:17:38;;;;;;;3.10;2.25;;;8.70;99.90;;;;;;5033904;28;20201;-76
2024/02/19 05:20:10;;;;;;;3.80;2.55;;;8.70;99.90;;;;;;5034087;28;20244;-77
2024/02/19 05:22:37;;;;;;;2.97;2.03;;;8.70;99.90;;;;;;5033932;28;20656;-75
2024/02/19 05:25:05;;;;;;;4.53;2.70;;;8.70;99.90;;;;;;5034155;28;20618;-75
2024/02/19 05:27:32;;;;;;;2.85;2.15;;;8.70;99.90;;;;;;5033539;28;20578;-73
2024/02/19 05:29:59;;;;;;;4.80;2.67;;;8.80;99.90;;;;;;5029425;28;20209;-76
2024/02/19 05:32:26;;;;;;;4.25;3.67;;;8.80;99.90;;;;;;5033813;28;20322;-75
2024/02/19 05:34:53;;;;;;;3.80;2.70;;;8.80;99.90;;;;;;5029535;28;20205;-75
2024/02/19 05:37:22;;;;;;;1.90;1.70;;;8.70;99.90;;;;;;5033104;28;20231;-76
2024/02/19 05:39:49;;;;;;;3.10;2.40;;;8.80;99.90;;;;;;5032377;28;20279;-74
2024/02/19 05:42:16;;;;;;;2.90;1.88;;;8.80;99.90;;;;;;5032860;28;20275;-74
2024/02/19 05:44:43;;;;;;;5.82;2.42;;;8.80;99.90;;;;;;5033356;28;20240;-75
2024/02/19 05:47:10;;;;;;;4.15;2.22;;;8.80;99.90;;;;;;5034042;28;20283;-74
2024/02/19 05:49:37;;;;;;;3.20;1.75;;;8.80;99.90;;;;;;5033636;28;20663;-74
2024/02/19 05:52:05;;;;;;;3.97;2.40;;;8.80;99.90;;;;;;5024659;28;20211;-78
2024/02/19 05:54:33;;;;;;;9.18;2.58;;;8.80;99.90;;;;;;5026198;28;20252;-74
2024/02/19 05:57:02;;;;;;;3.03;1.98;;;8.80;99.90;;;;;;5033712;28;20255;-75
2024/02/19 05:59:29;;;;;;;5.40;2.20;;;8.80;99.90;;;;;;5030692;28;20230;-75
2024/02/19 06:01:56;;;;;;;8.98;3.00;;;8.80;99.90;;;;;;5032586;28;20259;-75
2024/02/19 06:04:23;;;;;;;3.72;2.55;;;8.80;99.90;;;;;;5034762;28;20235;-75
2024/02/19 06:06:50;;;;;;;2.00;1.80;;;8.80;99.90;;;;;;5032460;28;20205;-71
2024/02/19 06:09:17;;;;;;;5.10;2.63;;;8.90;99.90;;;;;;5033405;28;20624;-72
2024/02/19 06:11:45;;;;;;;9.43;2.60;;;8.90;99.90;;;;;;5033903;28;20307;-73
2024/02/19 06:14:12;;;;;;;3.35;2.40;;;8.90;99.90;;;;;;5033081;28;20232;-76
2024/02/19 06:16:39;;;;;;;4.35;2.33;;;8.90;99.90;;;;;;5034432;28;20197;-73
2024/02/19 06:19:08;;;;;;;4.60;2.92;;;8.90;99.90;;;;;;5032711;28;20251;-75
2024/02/19 06:21:35;;;;;;;5.90;4.38;;;8.90;99.90;;;;;;5024132;28;20201;-76
2024/02/19 06:24:02;;;;;;;4.28;2.85;;;8.90;99.90;;;;;;5039146;28;20235;-73
2024/02/19 06:26:29;;;;;;;3.83;2.70;;;8.90;99.90;;;;;;5036833;28;20197;-76
2024/02/19 06:28:58;;;;;;;5.32;3.50;;;8.90;99.90;;;;;;5032876;28;20224;-74
2024/02/19 06:31:27;;;;;;;6.00;3.80;;;8.90;99.90;;;;;;5039361;28;20247;-75
2024/02/19 06:33:54;;;;;;;5.15;2.97;;;8.90;99.90;;;;;;5035730;28;20585;-76
2024/02/19 06:36:22;;;;;;;7.80;3.65;;;8.90;99.90;;;;;;5033141;28;20204;-74
2024/02/19 06:38:49;;;;;;;4.05;3.47;;;8.90;99.90;;;;;;5034969;28;20778;-75
2024/02/19 06:41:16;;;;;;;5.60;3.63;;;8.90;99.90;;;;;;5036766;28;20201;-73
2024/02/19 06:43:43;;;;;;;4.75;2.80;;;8.90;99.90;;;;;;5036589;28;20228;-75
2024/02/19 06:46:12;;;;;;;6.45;3.15;;;9.00;99.90;;;;;;5039435;28;20205;-77
2024/02/19 06:48:41;;;;;;;13.50;3.30;;;9.00;99.90;;;;;;5049336;28;20197;-76
2024/02/19 06:51:08;;;;;;;10.35;4.50;;;9.00;99.90;;;;;;5049834;28;20200;-76
2024/02/19 06:53:35;;;;;;;5.15;3.00;;;9.00;99.90;;;;;;5034369;28;20292;-76
2024/02/19 06:56:02;;;;;;;5.50;3.40;;;9.00;99.90;;;;;;5027900;28;20252;-75
2024/02/19 06:58:29;;;;;;;10.65;3.70;;;9.10;99.90;;;;;;5028198;28;20229;-75
2024/02/19 07:00:56;;;;;;;14.40;2.92;;;9.10;99.90;;;;;;5030989;28;20208;-75
2024/02/19 07:03:26;;;;;;;5.32;2.60;;;9.10;99.90;;;;;;5027625;28;20593;-76
2024/02/19 07:05:54;;;;;;;5.25;3.20;;;9.10;99.90;;;;;;5032167;28;20200;-76
2024/02/19 07:08:21;;;;;;;12.00;4.10;;;9.10;99.90;;;;;;5033126;28;20270;-76
2024/02/19 07:10:48;;;;;;;8.77;3.58;;;9.10;99.90;;;;;;5031539;28;20204;-76
2024/02/19 07:13:15;;;;;;;6.72;3.63;;;9.20;99.90;;;;;;5033017;28;20224;-76
2024/02/19 07:15:42;;;;;;;9.80;4.68;;;9.20;99.90;;;;;;5032141;28;20204;-75
2024/02/19 07:18:08;;;;;;;5.00;4.20;;;9.20;99.90;;;;;;5033474;28;20286;-74
2024/02/19 07:20:37;;;;;;;5.15;4.65;;;9.30;99.90;;;;;;5043522;28;20650;-76
2024/02/19 07:23:05;;;;;;;9.25;4.90;;;9.30;99.90;;;;;;5033653;28;20221;-75
2024/02/19 07:25:31;;;;;;;5.63;4.82;;;9.30;99.90;;;;;;5033299;28;20663;-73
2024/02/19 07:27:58;;;;;;;7.70;4.25;;;9.30;99.90;;;;;;5036543;28;20262;-73
2024/02/19 07:30:25;;;;;;;6.30;4.72;;;9.30;99.90;;;;;;5038262;28;20224;-74
2024/02/19 07:32:52;;;;;;;5.72;4.53;;;9.40;99.90;;;;;;5036266;28;20295;-76
2024/02/19 07:35:19;;;;;;;12.60;5.13;;;9.40;99.90;;;;;;5036533;28;20200;-76
2024/02/19 07:37:48;;;;;;;16.10;4.30;;;9.40;99.90;;;;;;5036007;28;20208;-76
2024/02/19 07:40:15;;;;;;;13.73;4.90;;;9.40;99.90;;;;;;5035408;28;20275;-75
2024/02/19 07:42:42;;;;;;;8.70;5.22;;;9.30;99.90;;;;;;5033350;28;20250;-75
2024/02/19 07:45:10;;;;;;;9.55;5.20;;;9.30;99.90;;;;;;5031675;28;20209;-74
2024/02/19 07:47:37;;;;;;;5.40;4.90;;;9.40;99.90;;;;;;5032888;28;20204;-75
2024/02/19 07:50:04;;;;;;;9.20;5.45;;;9.40;99.90;;;;;;5036125;28;20208;-75
2024/02/19 07:52:31;;;;;;;6.43;4.20;;;9.30;99.90;;;;;;5031425;28;20217;-76
2024/02/19 07:55:01;;;;;;;7.20;4.40;;;9.30;99.90;;;;;;5029910;28;20201;-77
2024/02/19 07:57:28;;;;;;;12.55;4.85;;;9.30;99.90;;;;;;5034780;28;20209;-75
2024/02/19 07:59:55;;;;;;;4.75;3.83;;;9.30;99.90;;;;;;5034257;28;20274;-75
2024/02/19 08:02:22;;;;;;;5.93;3.47;;;9.30;99.90;;;;;;5031598;28;20208;-74
2024/02/19 08:04:49;;;;;;;13.00;4.55;;;9.30;99.90;;;;;;5033584;28;20684;-74
2024/02/19 08:07:16;;;;;;;11.18;4.65;;;9.30;99.90;;;;;;5038199;28;20208;-74
2024/02/19 08:09:44;;;;;;;5.95;3.25;;;9.30;99.90;;;;;;5039212;28;20205;-75
2024/02/19 08:12:13;;;;;;;13.70;5.85;;;9.40;99.90;;;;;;5040478;28;20235;-76
2024/02/19 08:14:40;;;;;;;6.18;3.47;;;9.30;99.90;;;;;;5037836;28;20254;-74
2024/02/19 08:17:07;;;;;;;6.90;3.53;;;9.40;99.90;;;;;;5038008;28;20201;-73
2024/02/19 08:19:34;;;;;;;12.20;3.40;;;9.50;99.90;;;;;;5035589;28;20216;-74
2024/02/19 08:22:01;;;;;;;8.27;3.95;;;9.60;99.90;;;;;;5040503;28;20209;-74
2024/02/19 08:24:28;;;;;;;5.82;3.00;;;9.70;99.90;;;;;;5040983;28;20201;-73
2024/02/19 08:26:57;;;;;;;5.72;3.08;;;9.70;99.90;;;;;;5039020;28;20204;-73
2024/02/19 08:29:25;;;;;;;6.18;2.90;;;9.60;99.90;;;;;;5035107;28;20208;-73
2024/02/19 08:31:52;;;;;;;4.20;2.15;;;9.70;99.90;;;;;;5036895;28;20209;-75
2024/02/19 08:34:20;;;;;;;4.03;2.72;;;10.10;99.90;;;;;;5045933;28;20273;-75
2024/02/19 08:36:47;;;;;;;6.65;2.65;;;10.60;99.90;;;;;;5038884;28;20616;-74
2024/02/19 08:39:15;;;;;;;9.05;2.75;;;10.70;99.90;;;;;;5042834;28;20231;-74
2024/02/19 08:41:41;;;;;;;8.63;2.58;;;10.70;99.90;;;;;;5037942;28;20205;-75
2024/02/19 08:44:08;;;;;;;6.07;2.00;;;10.80;99.90;;;;;;5029309;28;20229;-74
2024/02/19 08:46:38;;;;;;;7.53;2.28;;;10.90;99.90;;;;;;5035277;28;20207;-75
2024/02/19 08:49:08;;;;;;;5.68;3.40;;;11.00;99.90;;;;;;5035496;28;20250;-73
2024/02/19 08:51:35;;;;;;;7.45;2.10;;;11.50;99.90;;;;;;5032718;28;20207;-75
2024/02/19 08:54:04;;;;;;;8.15;2.45;;;12.20;99.90;;;;;;5030620;28;20217;-74
2024/02/19 08:56:31;;;;;;;8.35;1.80;;;13.10;99.90;;;;;;5035731;28;20197;-74
2024/02/19 08:59:01;;;;;;;10.55;2.05;;;14.20;99.90;;;;;;5035260;28;20232;-74
2024/02/19 09:01:28;;;;;;;8.40;2.13;;;14.70;99.90;;;;;;5029603;28;20201;-74
2024/02/19 09:03:56;;;;;;;7.60;2.53;;;15.20;99.90;;;;;;5031807;28;20510;-76
2024/02/19 09:06:23;;;;;;;5.00;2.30;;;14.80;99.90;;;;;;5031973;28;20443;-76
2024/02/19 09:08:51;;;;;;;4.68;1.85;;;14.50;99.90;;;;;;5036007;28;20443;-75
2024/02/19 09:11:18;;;;;;;6.50;3.00;;;13.80;99.90;;;;;;5034297;28;20780;-75
2024/02/19 09:13:45;;;;;;;10.23;2.45;;;13.50;99.90;;;;;;5035480;28;20228;-73
2024/02/19 09:16:12;;;;;;;7.20;2.30;;;13.30;99.90;;;;;;5035893;28;20709;-74
2024/02/19 09:18:39;;;;;;;5.95;2.42;;;13.10;99.90;;;;;;5036535;28;20200;-74
2024/02/19 09:21:07;;;;;;;9.88;2.45;;;12.60;99.90;;;;;;5033688;28;20224;-76
2024/02/19 09:23:36;;;;;;;18.90;2.88;;;12.60;99.90;;;;;;5037893;28;20683;-75
2024/02/19 09:26:03;;;;;;;9.60;2.90;;;12.70;99.90;;;;;;5044263;28;20200;-73
2024/02/19 09:28:31;;;;;;;14.07;2.95;;;12.80;99.90;;;;;;5047732;28;20231;-75
2024/02/19 09:30:58;;;;;;;13.15;3.00;;;13.20;99.90;;;;;;5052801;28;20632;-73
2024/02/19 09:33:25;;;;;;;11.95;3.42;;;13.00;99.90;;;;;;5048846;28;20235;-74
2024/02/19 09:35:52;;;;;;;16.33;5.45;;;12.90;99.90;;;;;;5036410;28;20263;-73
2024/02/19 09:38:21;;;;;;;17.70;3.92;;;13.00;99.90;;;;;;5035764;28;20538;-73
2024/02/19 09:40:49;;;;;;;11.15;4.40;;;12.70;99.90;;;;;;5032063;28;20340;-76
2024/02/19 09:43:17;;;;;;;26.10;4.90;;;12.60;99.90;;;;;;5034019;28;20613;-73
2024/02/19 09:45:44;;;;;;;9.02;2.67;;;12.40;99.90;;;;;;5033192;28;20232;-75
2024/02/19 09:48:15;;;;;;;7.95;2.65;;;12.50;99.90;;;;;;5034111;28;20219;-74
2024/02/19 09:50:47;;;;;;;10.70;2.90;;;12.50;99.90;;;;;;5032572;28;20200;-75
2024/02/19 09:53:18;;;;;;;11.63;3.53;;;12.50;99.90;;;;;;5031710;28;20221;-74
2024/02/19 09:55:47;;;;;;;16.20;3.42;;;12.60;99.90;;;;;;5031135;28;20571;-76
2024/02/19 09:58:15;;;;;;;10.07;3.40;;;12.40;99.90;;;;;;5034281;28;20205;-74
2024/02/19 10:00:42;;;;;;;9.65;3.05;;;12.40;99.90;;;;;;5034169;28;20683;-74
2024/02/19 10:03:09;;;;;;;10.48;3.25;;;12.40;99.90;;;;;;5038629;28;20224;-76
2024/02/19 10:05:36;;;;;;;8.50;2.88;;;12.90;99.90;;;;;;5034131;28;20251;-74
2024/02/19 10:08:12;;;;;;;11.05;4.93;;;13.60;99.90;;;;;;5033272;28;20573;-74
2024/02/19 10:10:40;;;;;;;9.30;3.47;;;14.70;99.90;;;;;;5032219;28;20238;-76
2024/02/19 10:13:12;;;;;;;17.10;4.23;;;15.00;99.90;;;;;;5031215;28;20868;-75
2024/02/19 10:15:39;;;;;;;13.98;2.58;;;14.20;99.90;;;;;;5030479;28;20440;-74
2024/02/19 10:18:15;;;;;;;13.30;3.55;;;14.20;99.90;;;;;;5033226;28;20251;-76
2024/02/19 10:20:45;;;;;;;7.95;2.53;;;13.40;99.90;;;;;;5034885;28;20270;-73
2024/02/19 10:23:12;;;;;;;11.05;3.03;;;12.80;99.90;;;;;;5034034;28;20252;-74
2024/02/19 10:25:39;;;;;;;8.05;3.70;;;12.80;99.90;;;;;;5035835;28;20262;-75
2024/02/19 10:28:08;;;;;;;16.67;3.15;;;12.70;99.90;;;;;;5033538;28;20294;-73
2024/02/19 10:30:37;;;;;;;8.45;3.13;;;12.60;99.90;;;;;;5036049;28;20586;-73
2024/02/19 10:33:05;;;;;;;10.27;2.75;;;12.50;99.90;;;;;;5032771;28;20588;-73
2024/02/19 10:35:32;;;;;;;7.07;1.88;;;12.30;99.90;;;;;;5035423;28;20249;-75
2024/02/19 10:37:59;;;;;;;12.02;2.35;;;12.30;99.90;;;;;;5033691;28;20208;-75
2024/02/19 10:40:27;;;;;;;11.13;3.67;;;12.30;99.90;;;;;;5033909;28;20270;-72
2024/02/19 10:42:57;;;;;;;9.25;2.38;;;12.50;99.90;;;;;;5032540;28;20229;-73
2024/02/19 10:45:25;;;;;;;10.18;3.08;;;12.30;99.90;;;;;;5028590;28;20247;-73
2024/02/19 10:47:54;;;;;;;13.80;2.67;;;12.10;99.90;;;;;;5031236;28;20208;-75
2024/02/19 10:50:22;;;;;;;11.30;3.28;;;11.90;99.90;;;;;;5034125;28;20266;-74
2024/02/19 10:52:49;;;;;;;13.38;3.78;;;11.80;99.90;;;;;;5031787;28;20224;-74
2024/02/19 10:55:17;;;;;;;11.98;3.88;;;11.80;99.90;;;;;;5033021;28;20263;-72
2024/02/19 10:57:51;;;;;;;8.75;3.88;;;11.80;99.90;;;;;;5029051;28;20271;-76
2024/02/19 11:00:19;;;;;;;9.93;3.30;;;11.90;99.90;;;;;;5027516;28;20254;-74
2024/02/19 11:02:47;;;;;;;10.50;3.35;;;12.30;99.90;;;;;;5023956;28;20235;-75
2024/02/19 11:05:15;;;;;;;8.55;3.72;;;12.40;99.90;;;;;;5023632;28;20215;-74
2024/02/19 11:07:42;;;;;;;9.95;4.00;;;12.30;99.90;;;;;;5032054;28;20258;-74
2024/02/19 11:10:10;;;;;;;8.93;3.80;;;12.40;99.90;;;;;;5032889;28;20236;-75
2024/02/19 11:12:38;;;;;;;14.85;4.20;;;12.20;99.90;;;;;;5032003;28;20316;-74
2024/02/19 11:15:16;;;;;;;18.27;4.43;;;12.10;99.90;;;;;;5026767;28;20640;-74
2024/02/19 11:17:44;;;;;;;17.08;4.28;;;12.20;99.90;;;;;;5031966;28;20219;-73
2024/02/19 11:20:12;;;;;;;8.27;3.35;;;12.10;99.90;;;;;;5032522;28;20221;-74
2024/02/19 11:22:40;;;;;;;8.15;3.65;;;12.10;99.90;;;;;;5024031;28;20217;-75
2024/02/19 11:25:08;;;;;;;12.75;3.65;;;12.30;99.90;;;;;;5028691;28;20720;-74
2024/02/19 11:27:35;;;;;;;13.35;4.30;;;12.20;99.90;;;;;;5031487;28;20623;-75
2024/02/19 11:30:06;;;;;;;7.60;3.65;;;12.20;99.90;;;;;;5030912;28;20250;-76
2024/02/19 11:32:35;;;;;;;15.85;4.88;;;12.30;99.90;;;;;;5031591;28;20563;-74
2024/02/19 11:35:11;;;;;;;13.10;3.78;;;12.70;99.90;;;;;;5032036;28;20209;-74
2024/02/19 11:37:40;;;;;;;10.05;3.20;;;12.70;99.90;;;;;;5033420;28;20254;-74
2024/02/19 11:40:08;;;;;;;7.63;4.18;;;12.90;99.90;;;;;;5032066;28;20213;-76
2024/02/19 11:42:36;;;;;;;7.90;3.33;;;13.20;99.90;;;;;;5028637;28;20228;-75
2024/02/19 11:45:03;;;;;;;8.70;3.50;;;13.50;99.90;;;;;;5031982;28;20216;-74
2024/02/19 11:47:30;;;;;;;7.20;3.10;;;13.40;99.90;;;;;;5034651;28;20287;-76
2024/02/19 11:49:57;;;;;;;10.95;3.42;;;13.40;99.90;;;;;;5026827;28;20212;-74
2024/02/19 11:52:24;;;;;;;11.20;3.65;;;13.40;99.90;;;;;;5033849;28;20216;-72
2024/02/19 11:54:54;;;;;;;8.98;4.00;;;13.30;99.90;;;;;;5026298;28;20619;-75
2024/02/19 11:57:23;;;;;;;9.27;5.90;;;13.50;99.90;;;;;;5031940;28;20259;-75
2024/02/19 11:59:50;;;;;;;17.25;9.57;;;13.30;99.90;;;;;;5030687;28;20236;-74
2024/02/19 12:02:18;;;;;;;23.75;11.05;;;12.90;99.90;;;;;;5024263;28;20211;-72
2024/02/19 12:04:50;;;;;;;22.65;10.95;;;12.80;99.90;;;;;;5031122;28;20278;-74
2024/02/19 12:07:18;;;;;;;29.23;14.45;;;12.80;99.90;;;;;;5042335;28;20293;-73
2024/02/19 12:09:45;;;;;;;31.50;15.98;;;12.70;99.90;;;;;;5047522;28;20220;-75
2024/02/19 12:12:15;;;;;;;24.45;13.13;;;12.50;99.90;;;;;;5058911;28;20208;-72
2024/02/19 12:14:43;;;;;;;33.03;15.70;;;12.30;99.90;;;;;;5050714;28;20204;-74
2024/02/19 12:17:10;;;;;;;20.98;11.48;;;12.10;99.90;;;;;;5035350;28;20201;-75
2024/02/19 12:19:37;;;;;;;20.55;11.00;;;12.10;99.90;;;;;;5035695;28;20204;-73
2024/02/19 12:22:06;;;;;;;24.83;13.35;;;12.10;99.90;;;;;;5037489;28;20313;-73
2024/02/19 12:24:33;;;;;;;19.05;11.32;;;12.20;99.90;;;;;;5035188;28;20200;-73
2024/02/19 12:27:00;;;;;;;26.05;15.18;;;12.20;99.90;;;;;;5031371;28;20196;-74
2024/02/19 12:29:28;;;;;;;37.78;20.27;;;12.20;99.90;;;;;;5035106;28;20204;-73
2024/02/19 12:31:55;;;;;;;41.72;24.00;;;12.10;99.90;;;;;;5033188;28;20253;-73
2024/02/19 12:34:22;;;;;;;32.45;21.90;;;11.90;99.90;;;;;;5033436;28;20691;-73
2024/02/19 12:36:49;;;;;;;37.05;22.50;;;11.90;99.90;;;;;;5033477;28;20575;-76
2024/02/19 12:39:17;;;;;;;36.60;24.08;;;12.00;99.90;;;;;;5038712;28;20254;-73
2024/02/19 12:41:46;;;;;;;35.03;21.70;;;11.90;99.90;;;;;;5035475;28;21965;-75
2024/02/19 12:44:13;;;;;;;37.53;19.80;;;11.90;99.90;;;;;;5026887;28;20251;-76
2024/02/19 12:46:42;;;;;;;28.50;16.77;;;11.90;99.90;;;;;;5032083;28;20196;-74
2024/02/19 12:49:13;;;;;;;29.73;17.98;;;12.10;99.90;;;;;;5042192;28;20204;-74
2024/02/19 12:51:40;;;;;;;24.40;17.02;;;12.00;99.90;;;;;;5038738;28;20709;-73